Time;durP1;ratioP1;P1;durP2;ratioP2;P2;SDS_P1;SDS_P2;PMS_P1;PMS_P2;Temp;Humidity;BMP_temperature;BMP_pressure;BME280_temperature;BME280_humidity;BME280_pressure;Samples;Min_cycle;Max_cycle;Signal;HPM_P1;HPM_P2
2023/03/14 00:01:21;;;;;;;1.87;1.27;;;11.30;99.90;;;;;;5130760;27;20566;-72
2023/03/14 00:03:47;;;;;;;3.60;1.40;;;11.30;99.90;;;;;;5131313;27;20398;-72
2023/03/14 00:06:14;;;;;;;4.80;1.03;;;11.20;99.90;;;;;;5117705;27;20477;-72
2023/03/14 00:08:41;;;;;;;6.77;1.47;;;11.10;99.90;;;;;;5144402;27;20405;-72
2023/03/14 00:11:08;;;;;;;3.13;1.03;;;11.10;99.90;;;;;;5120444;27;20864;-72
2023/03/14 00:13:34;;;;;;;2.37;1.30;;;11.00;99.90;;;;;;5112491;28;20427;-72
2023/03/14 00:16:08;;;;;;;18.10;1.50;;;11.00;99.90;;;;;;5112304;28;20445;-73
2023/03/14 00:18:34;;;;;;;2.80;1.37;;;11.00;99.90;;;;;;5123734;27;20168;-72
2023/03/14 00:21:00;;;;;;;4.57;2.40;;;11.00;99.90;;;;;;5133126;27;20770;-72
2023/03/14 00:23:30;;;;;;;3.53;1.00;;;11.00;99.90;;;;;;5132999;27;20220;-72
2023/03/14 00:26:08;;;;;;;5.00;1.43;;;11.10;99.90;;;;;;5130403;27;20452;-72
2023/03/14 00:28:34;;;;;;;5.13;1.67;;;11.10;99.90;;;;;;5132899;27;20542;-72
2023/03/14 00:31:02;;;;;;;4.97;1.90;;;11.20;99.90;;;;;;5133031;27;20504;-73
2023/03/14 00:33:28;;;;;;;6.37;1.50;;;11.40;99.90;;;;;;5132917;27;20156;-72
2023/03/14 00:35:58;;;;;;;2.03;1.10;;;11.40;99.90;;;;;;5118283;27;20840;-72
2023/03/14 00:38:25;;;;;;;4.90;1.43;;;11.50;99.90;;;;;;5114824;27;20173;-72
2023/03/14 00:40:51;;;;;;;3.60;1.63;;;11.70;99.90;;;;;;5111078;28;20415;-72
2023/03/14 00:43:17;;;;;;;1.30;0.90;;;11.70;99.90;;;;;;5112394;28;20409;-72
2023/03/14 00:45:43;;;;;;;1.47;1.03;;;11.80;99.90;;;;;;5119196;28;20539;-72
2023/03/14 00:48:08;;;;;;;4.30;1.07;;;11.90;99.90;;;;;;5132575;28;20433;-71
2023/03/14 00:50:34;;;;;;;2.10;1.43;;;11.90;99.90;;;;;;5132640;28;20587;-72
2023/03/14 00:52:59;;;;;;;10.30;2.00;;;12.00;99.90;;;;;;5131449;27;20198;-72
2023/03/14 00:55:25;;;;;;;3.17;1.50;;;12.00;99.90;;;;;;5132616;27;20171;-72
2023/03/14 00:57:51;;;;;;;4.13;1.60;;;12.00;99.90;;;;;;5132577;27;20203;-72
2023/03/14 01:00:16;;;;;;;2.33;1.20;;;12.10;99.90;;;;;;5132782;27;20160;-72
2023/03/14 01:02:42;;;;;;;2.07;0.93;;;12.00;99.90;;;;;;5131526;28;20192;-71
2023/03/14 01:05:10;;;;;;;4.97;1.30;;;11.90;99.90;;;;;;5118951;27;20574;-72
2023/03/14 01:07:36;;;;;;;1.20;1.10;;;11.70;99.90;;;;;;5111919;28;20168;-71
2023/03/14 01:10:02;;;;;;;1.73;0.90;;;11.40;99.90;;;;;;5112109;28;20401;-72
2023/03/14 01:12:28;;;;;;;1.43;0.90;;;11.00;99.90;;;;;;5119092;27;20461;-71
2023/03/14 01:14:53;;;;;;;2.90;0.80;;;10.80;99.90;;;;;;5112040;28;20394;-72
2023/03/14 01:17:19;;;;;;;1.03;0.77;;;10.70;99.90;;;;;;5111902;27;20663;-71
2023/03/14 01:19:44;;;;;;;1.40;0.70;;;10.40;99.90;;;;;;5145143;27;20169;-71
2023/03/14 01:22:09;;;;;;;1.53;1.00;;;10.40;99.90;;;;;;5119488;27;20210;-72
2023/03/14 01:24:37;;;;;;;1.57;1.20;;;10.30;99.90;;;;;;5131209;28;20179;-72
2023/03/14 01:27:02;;;;;;;3.27;0.80;;;10.30;99.90;;;;;;5132242;27;20635;-72
2023/03/14 01:29:29;;;;;;;3.20;0.90;;;10.20;99.90;;;;;;5132475;27;20412;-71
2023/03/14 01:31:54;;;;;;;0.80;0.60;;;10.20;99.90;;;;;;5119756;28;20281;-71
2023/03/14 01:34:20;;;;;;;2.70;1.10;;;10.20;99.90;;;;;;5111675;28;20548;-72
2023/03/14 01:36:46;;;;;;;2.23;1.10;;;10.10;99.90;;;;;;5111583;28;20285;-72
2023/03/14 01:39:12;;;;;;;2.30;0.80;;;10.10;99.90;;;;;;5112790;28;20165;-72
2023/03/14 01:41:39;;;;;;;0.90;0.77;;;10.10;99.90;;;;;;5111811;28;20173;-71
2023/03/14 01:44:08;;;;;;;2.50;1.37;;;10.20;99.90;;;;;;5111853;28;20917;-71
2023/03/14 01:46:35;;;;;;;2.07;0.87;;;10.20;99.90;;;;;;5111829;28;20410;-72
2023/03/14 01:49:06;;;;;;;1.10;0.80;;;10.20;99.90;;;;;;5118688;28;20823;-71
2023/03/14 01:51:38;;;;;;;0.90;0.77;;;10.20;99.90;;;;;;5130974;27;20430;-71
2023/03/14 01:54:25;;;;;;;2.27;1.13;;;10.30;99.90;;;;;;5130832;27;20502;-72
2023/03/14 01:57:02;;;;;;;3.40;0.80;;;10.30;99.90;;;;;;5111763;28;20878;-72
2023/03/14 01:59:31;;;;;;;3.20;1.10;;;10.30;99.90;;;;;;5115340;28;20428;-72
2023/03/14 02:01:58;;;;;;;2.33;0.90;;;10.20;99.90;;;;;;5115281;28;20501;-72
2023/03/14 02:04:30;;;;;;;2.23;0.83;;;10.10;99.90;;;;;;5124131;27;20399;-71
2023/03/14 02:07:02;;;;;;;3.53;1.10;;;10.00;99.90;;;;;;5114845;28;20406;-72
2023/03/14 02:09:29;;;;;;;1.97;1.00;;;10.00;99.90;;;;;;5113867;28;20411;-72
2023/03/14 02:11:54;;;;;;;3.20;1.10;;;10.00;99.90;;;;;;5123997;27;20939;-72
2023/03/14 02:14:32;;;;;;;3.07;0.93;;;10.00;99.90;;;;;;5135675;27;20413;-71
2023/03/14 02:16:59;;;;;;;0.90;0.70;;;10.00;99.90;;;;;;5135130;27;20200;-72
2023/03/14 02:19:44;;;;;;;1.80;1.10;;;10.00;99.90;;;;;;5135493;27;20420;-72
2023/03/14 02:22:12;;;;;;;1.50;0.90;;;9.90;99.90;;;;;;5119416;27;20521;-71
2023/03/14 02:25:03;;;;;;;1.00;0.80;;;10.00;99.90;;;;;;5114743;28;20395;-72
2023/03/14 02:27:29;;;;;;;2.37;1.07;;;10.10;99.90;;;;;;5071751;28;20777;-72
2023/03/14 02:30:02;;;;;;;1.60;0.70;;;10.10;99.90;;;;;;5121883;27;20418;-71
2023/03/14 02:32:31;;;;;;;2.77;0.90;;;10.10;99.90;;;;;;5128825;27;20212;-72
2023/03/14 02:34:59;;;;;;;2.33;0.87;;;10.10;99.90;;;;;;5135119;27;20402;-71
2023/03/14 02:37:31;;;;;;;1.63;0.80;;;10.10;99.90;;;;;;5134829;27;20445;-71
2023/03/14 02:39:57;;;;;;;3.23;0.87;;;10.10;99.90;;;;;;5135128;27;21244;-71
2023/03/14 02:42:23;;;;;;;2.03;0.60;;;10.00;99.90;;;;;;5134978;27;20445;-71
2023/03/14 02:44:55;;;;;;;4.73;0.90;;;9.90;99.90;;;;;;5134946;27;20247;-71
2023/03/14 02:47:28;;;;;;;0.80;0.60;;;9.80;99.90;;;;;;5134600;27;20172;-72
2023/03/14 02:50:06;;;;;;;1.43;0.70;;;9.70;99.90;;;;;;5134908;27;20446;-71
2023/03/14 02:52:32;;;;;;;1.07;0.70;;;9.70;99.90;;;;;;5118770;27;20531;-72
2023/03/14 02:54:57;;;;;;;1.07;0.60;;;9.70;99.90;;;;;;5114195;27;20555;-72
2023/03/14 02:57:23;;;;;;;1.40;0.70;;;9.70;99.90;;;;;;5113821;28;20667;-71
2023/03/14 02:59:48;;;;;;;1.30;0.90;;;9.60;99.90;;;;;;5114080;28;20181;-71
2023/03/14 03:02:14;;;;;;;3.20;1.07;;;9.70;99.90;;;;;;5115118;27;20546;-71
2023/03/14 03:04:39;;;;;;;1.37;0.70;;;9.70;99.90;;;;;;5113992;28;20172;-71
2023/03/14 03:07:05;;;;;;;1.73;1.03;;;9.70;99.90;;;;;;5113868;28;20169;-72
2023/03/14 03:09:30;;;;;;;2.33;0.83;;;9.80;99.90;;;;;;5113163;28;20168;-71
2023/03/14 03:11:56;;;;;;;2.43;1.13;;;9.90;99.90;;;;;;5113644;28;20189;-72
2023/03/14 03:14:21;;;;;;;1.23;0.80;;;9.90;99.90;;;;;;5113903;28;20643;-72
2023/03/14 03:16:47;;;;;;;9.33;1.60;;;10.00;99.90;;;;;;5113498;28;20195;-71
2023/03/14 03:19:13;;;;;;;0.80;0.70;;;10.10;99.90;;;;;;5124888;27;20172;-72
2023/03/14 03:21:39;;;;;;;1.10;1.00;;;10.10;99.90;;;;;;5119105;27;20192;-71
2023/03/14 03:24:06;;;;;;;2.40;1.07;;;10.20;99.90;;;;;;5113754;28;20806;-72
2023/03/14 03:26:34;;;;;;;3.13;1.33;;;10.10;99.90;;;;;;5112291;28;20414;-72
2023/03/14 03:29:00;;;;;;;3.10;1.20;;;10.20;99.90;;;;;;5113239;28;20437;-71
2023/03/14 03:31:25;;;;;;;1.83;0.80;;;10.20;99.90;;;;;;5113346;28;20841;-71
2023/03/14 03:33:51;;;;;;;2.97;1.07;;;10.20;99.90;;;;;;5113472;28;20503;-71
2023/03/14 03:36:22;;;;;;;3.20;1.60;;;10.20;99.90;;;;;;5113345;28;20200;-71
2023/03/14 03:38:47;;;;;;;3.40;1.60;;;10.20;99.90;;;;;;5113158;28;20157;-71
2023/03/14 03:41:13;;;;;;;3.73;1.27;;;10.30;99.90;;;;;;5126321;27;20848;-71
2023/03/14 03:43:38;;;;;;;4.23;1.70;;;10.20;99.90;;;;;;5141480;27;20171;-71
2023/03/14 03:46:05;;;;;;;1.50;0.90;;;10.20;99.90;;;;;;5133758;27;20191;-71
2023/03/14 03:48:31;;;;;;;2.13;1.30;;;10.20;99.90;;;;;;5130731;27;20529;-71
2023/03/14 03:50:56;;;;;;;4.90;1.43;;;10.20;99.90;;;;;;5125870;27;20412;-71
2023/03/14 03:53:22;;;;;;;1.80;1.27;;;10.20;99.90;;;;;;5133696;27;20239;-71
2023/03/14 03:55:47;;;;;;;1.67;1.10;;;10.30;99.90;;;;;;5133523;27;20554;-71
2023/03/14 03:58:13;;;;;;;7.90;1.67;;;10.40;99.90;;;;;;5128112;27;20185;-71
2023/03/14 04:00:38;;;;;;;1.03;0.90;;;10.30;99.90;;;;;;5112924;28;20163;-72
2023/03/14 04:03:04;;;;;;;6.43;1.40;;;10.40;99.90;;;;;;5113015;28;20188;-71
2023/03/14 04:05:30;;;;;;;3.17;1.47;;;10.50;99.90;;;;;;5129625;27;20196;-71
2023/03/14 04:07:55;;;;;;;6.40;1.23;;;10.50;99.90;;;;;;5119026;27;20406;-72
2023/03/14 04:10:21;;;;;;;7.20;1.20;;;10.50;99.90;;;;;;5112829;28;20192;-71
2023/03/14 04:12:47;;;;;;;3.00;1.33;;;10.40;99.90;;;;;;5112539;28;20200;-71
2023/03/14 04:15:12;;;;;;;3.60;1.10;;;10.40;99.90;;;;;;5112730;28;20172;-71
2023/03/14 04:17:38;;;;;;;2.83;1.00;;;10.40;99.90;;;;;;5132519;27;20196;-71
2023/03/14 04:20:08;;;;;;;6.17;1.03;;;10.40;99.90;;;;;;5133230;27;20235;-71
2023/03/14 04:22:36;;;;;;;1.20;0.80;;;10.30;99.90;;;;;;5133172;27;20509;-71
2023/03/14 04:25:03;;;;;;;5.10;1.50;;;10.40;99.90;;;;;;5131782;27;20454;-71
2023/03/14 04:27:28;;;;;;;1.87;0.90;;;10.40;99.90;;;;;;5131540;27;20418;-72
2023/03/14 04:29:54;;;;;;;1.27;0.93;;;10.40;99.90;;;;;;5133051;27;20447;-71
2023/03/14 04:32:20;;;;;;;5.87;0.97;;;10.40;99.90;;;;;;5132991;27;20666;-71
2023/03/14 04:34:45;;;;;;;2.37;0.97;;;10.30;99.90;;;;;;5125708;27;20262;-71
2023/03/14 04:37:11;;;;;;;8.00;0.90;;;10.30;99.90;;;;;;5132584;27;20226;-71
2023/03/14 04:39:36;;;;;;;3.20;1.00;;;10.30;99.90;;;;;;5133025;27;20196;-71
2023/03/14 04:42:02;;;;;;;3.30;1.50;;;10.30;99.90;;;;;;5132791;27;20180;-72
2023/03/14 04:44:28;;;;;;;4.20;1.00;;;10.30;99.90;;;;;;5118928;27;20181;-71
2023/03/14 04:46:53;;;;;;;0.90;0.70;;;10.30;99.90;;;;;;5112105;28;20200;-71
2023/03/14 04:49:19;;;;;;;1.60;0.60;;;10.30;99.90;;;;;;5142404;27;20183;-71
2023/03/14 04:51:44;;;;;;;0.90;0.77;;;10.30;99.90;;;;;;5132797;28;20726;-72
2023/03/14 04:54:10;;;;;;;1.17;0.60;;;10.30;99.90;;;;;;5129211;28;20207;-71
2023/03/14 04:56:36;;;;;;;1.27;0.83;;;10.30;99.90;;;;;;5112128;28;20571;-72
2023/03/14 04:59:02;;;;;;;2.03;0.87;;;10.30;99.90;;;;;;5112025;28;20642;-72
2023/03/14 05:01:28;;;;;;;1.10;0.80;;;10.30;99.90;;;;;;5112173;28;20427;-71
2023/03/14 05:03:53;;;;;;;1.10;0.70;;;10.40;99.90;;;;;;5116390;28;20195;-72
2023/03/14 05:06:19;;;;;;;1.00;0.70;;;10.40;99.90;;;;;;5132800;27;20247;-72
2023/03/14 05:08:45;;;;;;;1.10;0.70;;;10.30;99.90;;;;;;5132473;27;20172;-72
2023/03/14 05:11:11;;;;;;;1.10;0.73;;;10.40;99.90;;;;;;5132815;28;20666;-72
2023/03/14 05:13:36;;;;;;;0.90;0.60;;;10.30;99.90;;;;;;5132603;27;20207;-72
2023/03/14 05:16:07;;;;;;;1.67;0.63;;;10.30;99.90;;;;;;5132502;28;20806;-70
2023/03/14 05:18:33;;;;;;;1.53;0.70;;;10.30;99.90;;;;;;5132320;27;20224;-72
2023/03/14 05:20:59;;;;;;;0.90;0.50;;;10.30;99.90;;;;;;5132569;27;22092;-70
2023/03/14 05:23:25;;;;;;;1.30;0.93;;;10.30;99.90;;;;;;5128604;27;20230;-71
2023/03/14 05:25:50;;;;;;;0.80;0.60;;;10.30;99.90;;;;;;5112058;28;20402;-71
2023/03/14 05:28:16;;;;;;;1.80;0.70;;;10.40;99.90;;;;;;5110377;28;20588;-71
2023/03/14 05:30:41;;;;;;;1.07;0.70;;;10.40;99.90;;;;;;5111860;28;20268;-71
2023/03/14 05:33:07;;;;;;;1.87;0.67;;;10.40;99.90;;;;;;5128072;27;20182;-71
2023/03/14 05:35:32;;;;;;;1.00;0.63;;;10.40;99.90;;;;;;5136287;27;20196;-71
2023/03/14 05:37:58;;;;;;;0.70;0.60;;;10.40;99.90;;;;;;5136058;27;20195;-72
2023/03/14 05:40:23;;;;;;;0.70;0.50;;;10.40;99.90;;;;;;5136334;27;20161;-72
2023/03/14 05:42:49;;;;;;;0.70;0.50;;;10.40;99.90;;;;;;5136237;27;20205;-72
2023/03/14 05:45:14;;;;;;;0.90;0.60;;;10.30;99.90;;;;;;5136269;27;20168;-72
2023/03/14 05:47:40;;;;;;;0.80;0.60;;;10.40;99.90;;;;;;5135937;27;20179;-73
2023/03/14 05:50:06;;;;;;;0.80;0.57;;;10.50;99.90;;;;;;5134887;27;20172;-71
2023/03/14 05:52:32;;;;;;;0.80;0.50;;;10.40;99.90;;;;;;5127857;27;20750;-71
2023/03/14 05:54:57;;;;;;;0.80;0.60;;;10.30;99.90;;;;;;5117315;27;20932;-71
2023/03/14 05:57:23;;;;;;;1.40;0.70;;;10.40;99.90;;;;;;5115127;28;20693;-71
2023/03/14 05:59:48;;;;;;;0.70;0.50;;;10.40;99.90;;;;;;5127446;27;20160;-71
2023/03/14 06:02:14;;;;;;;2.10;0.60;;;10.30;99.90;;;;;;5150403;27;20187;-71
2023/03/14 06:04:39;;;;;;;1.07;0.77;;;10.20;99.90;;;;;;5147156;27;20175;-71
2023/03/14 06:07:04;;;;;;;13.83;7.90;;;10.20;99.90;;;;;;5135504;27;20677;-71
2023/03/14 06:09:30;;;;;;;1.67;0.90;;;10.20;99.90;;;;;;5135832;27;20156;-71
2023/03/14 06:11:55;;;;;;;1.10;0.60;;;10.20;99.90;;;;;;5135475;27;20237;-71
2023/03/14 06:14:21;;;;;;;4.30;0.70;;;10.20;99.90;;;;;;5134373;27;20173;-71
2023/03/14 06:16:48;;;;;;;1.10;0.60;;;10.20;99.90;;;;;;5135102;27;20203;-71
2023/03/14 06:19:14;;;;;;;1.20;0.80;;;10.20;99.90;;;;;;5114924;28;20536;-70
2023/03/14 06:21:40;;;;;;;1.57;0.53;;;10.20;99.90;;;;;;5114840;28;20425;-71
2023/03/14 06:24:06;;;;;;;1.20;0.73;;;10.30;99.90;;;;;;5114824;28;20399;-71
2023/03/14 06:26:32;;;;;;;2.20;0.63;;;10.30;99.90;;;;;;5117399;27;20169;-71
2023/03/14 06:29:01;;;;;;;0.80;0.67;;;10.30;99.90;;;;;;5133866;27;20473;-71
2023/03/14 06:31:26;;;;;;;0.80;0.50;;;10.40;99.90;;;;;;5135335;27;20222;-71
2023/03/14 06:33:52;;;;;;;0.80;0.60;;;10.40;99.90;;;;;;5134835;27;20397;-71
2023/03/14 06:36:17;;;;;;;0.87;0.70;;;10.60;99.90;;;;;;5113367;28;20192;-71
2023/03/14 06:38:43;;;;;;;0.80;0.50;;;10.70;99.90;;;;;;5114331;28;20248;-72
2023/03/14 06:41:08;;;;;;;0.70;0.50;;;10.80;99.90;;;;;;5114493;28;20601;-71
2023/03/14 06:43:34;;;;;;;0.70;0.50;;;10.90;99.90;;;;;;5111979;28;20211;-71
2023/03/14 06:45:59;;;;;;;0.70;0.50;;;11.00;99.90;;;;;;5115366;27;20185;-72
2023/03/14 06:48:25;;;;;;;0.80;0.60;;;11.10;99.90;;;;;;5113009;28;20263;-71
2023/03/14 06:50:50;;;;;;;0.70;0.50;;;11.20;99.90;;;;;;5114361;28;20262;-72
2023/03/14 06:53:16;;;;;;;1.20;0.70;;;11.30;99.90;;;;;;5114657;27;20234;-71
2023/03/14 06:55:42;;;;;;;0.70;0.50;;;11.30;99.90;;;;;;5121680;27;20654;-71
2023/03/14 06:58:08;;;;;;;0.70;0.50;;;11.30;99.90;;;;;;5114033;28;20204;-71
2023/03/14 07:00:34;;;;;;;0.80;0.60;;;11.30;99.90;;;;;;5114216;28;20403;-71
2023/03/14 07:03:00;;;;;;;0.90;0.60;;;11.20;99.90;;;;;;5118441;27;20196;-71
2023/03/14 07:05:25;;;;;;;0.70;0.50;;;11.30;99.90;;;;;;5132607;27;20767;-73
2023/03/14 07:07:51;;;;;;;0.77;0.57;;;11.30;99.90;;;;;;5134294;27;20172;-71
2023/03/14 07:10:17;;;;;;;2.10;0.50;;;11.40;99.90;;;;;;5134561;27;20689;-71
2023/03/14 07:12:42;;;;;;;0.70;0.50;;;11.40;99.90;;;;;;5146835;27;20282;-71
2023/03/14 07:15:08;;;;;;;0.70;0.50;;;11.50;99.90;;;;;;5114883;27;20184;-71
2023/03/14 07:17:34;;;;;;;1.20;0.60;;;11.50;99.90;;;;;;5113619;28;20191;-71
2023/03/14 07:20:00;;;;;;;1.00;0.57;;;11.60;99.90;;;;;;5112561;28;20403;-72
2023/03/14 07:22:26;;;;;;;1.00;0.80;;;11.80;99.90;;;;;;5124069;27;20633;-71
2023/03/14 07:24:51;;;;;;;1.03;0.60;;;11.80;99.90;;;;;;5133995;27;20393;-71
2023/03/14 07:27:17;;;;;;;0.80;0.60;;;12.00;99.90;;;;;;5130468;27;20618;-71
2023/03/14 07:29:42;;;;;;;0.70;0.50;;;12.10;99.90;;;;;;5133206;27;20192;-73
2023/03/14 07:32:08;;;;;;;2.40;0.63;;;12.20;99.90;;;;;;5112213;28;20200;-72
2023/03/14 07:34:34;;;;;;;0.80;0.60;;;12.20;99.90;;;;;;5113523;28;20218;-71
2023/03/14 07:36:59;;;;;;;0.83;0.60;;;12.20;99.90;;;;;;5113047;28;20188;-71
2023/03/14 07:39:25;;;;;;;0.70;0.50;;;12.10;99.90;;;;;;5113331;28;20414;-71
2023/03/14 07:41:50;;;;;;;0.90;0.50;;;12.00;99.90;;;;;;5113269;28;20322;-72
2023/03/14 07:44:16;;;;;;;0.80;0.50;;;11.90;99.90;;;;;;5113365;28;20704;-71
2023/03/14 07:46:41;;;;;;;0.90;0.50;;;12.00;99.90;;;;;;5116429;27;20175;-71
2023/03/14 07:49:07;;;;;;;0.80;0.50;;;12.10;99.90;;;;;;5133404;27;20176;-72
2023/03/14 07:51:32;;;;;;;1.30;0.57;;;12.10;99.90;;;;;;5133791;27;20191;-72
2023/03/14 07:53:58;;;;;;;0.80;0.60;;;12.10;99.90;;;;;;5133774;27;20168;-71
2023/03/14 07:56:23;;;;;;;0.80;0.60;;;12.20;99.90;;;;;;5133208;27;20192;-72
2023/03/14 07:58:49;;;;;;;0.90;0.60;;;12.20;99.90;;;;;;5133496;27;20156;-71
2023/03/14 08:01:15;;;;;;;1.10;0.60;;;12.30;99.90;;;;;;5133604;27;20188;-72
2023/03/14 08:03:40;;;;;;;0.80;0.60;;;12.40;99.90;;;;;;5132329;27;20160;-71
2023/03/14 08:06:06;;;;;;;0.70;0.50;;;12.50;99.90;;;;;;5111583;28;20233;-71
2023/03/14 08:08:32;;;;;;;0.70;0.50;;;12.50;99.90;;;;;;5112568;28;20180;-71
2023/03/14 08:11:06;;;;;;;0.80;0.50;;;12.60;99.90;;;;;;5112707;28;20179;-72
2023/03/14 08:13:31;;;;;;;2.40;0.70;;;12.60;99.90;;;;;;5112727;28;20271;-72
2023/03/14 08:15:57;;;;;;;0.77;0.50;;;12.60;99.90;;;;;;5112521;28;20546;-72
2023/03/14 08:18:22;;;;;;;2.80;0.70;;;12.60;99.90;;;;;;5112424;28;20165;-71
2023/03/14 08:20:48;;;;;;;1.93;0.70;;;12.50;99.90;;;;;;5112576;28;20253;-71
2023/03/14 08:23:13;;;;;;;1.50;1.40;;;12.60;99.90;;;;;;5133294;27;20553;-71
2023/03/14 08:25:39;;;;;;;0.70;0.50;;;12.70;99.90;;;;;;5137685;27;20164;-72
2023/03/14 08:28:05;;;;;;;0.80;0.50;;;12.70;99.90;;;;;;5132930;27;20187;-73
2023/03/14 08:30:30;;;;;;;0.80;0.60;;;12.70;99.90;;;;;;5133062;27;20209;-72
2023/03/14 08:32:58;;;;;;;1.10;0.80;;;12.70;99.90;;;;;;5133064;27;20184;-73
2023/03/14 08:35:25;;;;;;;0.83;0.60;;;12.60;99.90;;;;;;5133055;27;20164;-73
2023/03/14 08:37:51;;;;;;;1.20;0.70;;;12.80;99.90;;;;;;5132688;27;20536;-71
2023/03/14 08:40:17;;;;;;;1.33;0.70;;;12.70;99.90;;;;;;5132958;27;20835;-71
2023/03/14 08:42:43;;;;;;;1.60;0.70;;;12.90;99.90;;;;;;5133015;27;20509;-71
2023/03/14 08:45:11;;;;;;;0.90;0.70;;;13.00;99.90;;;;;;5132953;27;20397;-71
2023/03/14 08:47:36;;;;;;;1.13;0.70;;;13.00;99.90;;;;;;5132332;27;20195;-71
2023/03/14 08:50:04;;;;;;;0.90;0.70;;;13.00;99.90;;;;;;5132950;27;20442;-71
2023/03/14 08:52:30;;;;;;;0.90;0.70;;;12.90;99.90;;;;;;5131544;28;20215;-71
2023/03/14 08:54:56;;;;;;;0.90;0.70;;;12.80;99.90;;;;;;5131454;27;20437;-71
2023/03/14 08:57:27;;;;;;;1.10;0.80;;;12.60;99.90;;;;;;5131772;28;20497;-72
2023/03/14 08:59:56;;;;;;;2.90;0.70;;;12.50;99.90;;;;;;5132502;27;20255;-71
2023/03/14 09:02:22;;;;;;;0.90;0.67;;;12.60;99.90;;;;;;5132451;27;20490;-71
2023/03/14 09:04:49;;;;;;;1.20;0.80;;;12.60;99.90;;;;;;5132507;27;20414;-71
2023/03/14 09:07:53;;;;;;;1.90;0.90;;;12.60;99.90;;;;;;5133470;27;20406;-73
2023/03/14 09:10:19;;;;;;;1.03;0.70;;;12.80;99.90;;;;;;5123328;27;20908;-73
2023/03/14 09:12:45;;;;;;;0.70;0.50;;;12.90;99.90;;;;;;5135194;27;20461;-73
2023/03/14 09:15:10;;;;;;;1.10;0.80;;;13.00;99.90;;;;;;5135617;27;20175;-73
2023/03/14 09:17:36;;;;;;;0.80;0.60;;;13.10;99.90;;;;;;5136307;27;20549;-71
2023/03/14 09:20:22;;;;;;;1.17;0.80;;;13.30;99.90;;;;;;5136751;27;20532;-71
2023/03/14 09:22:48;;;;;;;4.90;2.00;;;13.60;99.90;;;;;;5136606;27;20237;-72
2023/03/14 09:25:13;;;;;;;1.30;0.67;;;13.70;99.90;;;;;;5136855;27;20405;-72
2023/03/14 09:27:53;;;;;;;1.00;0.60;;;13.60;99.90;;;;;;5136413;27;20165;-72
2023/03/14 09:33:05;;;;;;;0.90;0.67;;;12.40;99.90;;;;;;5125314;27;20436;-72
2023/03/14 09:35:32;;;;;;;0.80;0.60;;;11.90;99.90;;;;;;5149149;27;20404;-71
2023/03/14 09:37:58;;;;;;;0.80;0.60;;;11.40;99.90;;;;;;5135870;27;20681;-72
2023/03/14 09:40:50;;;;;;;1.23;0.60;;;11.20;99.90;;;;;;5135023;27;20401;-72
2023/03/14 09:43:24;;;;;;;1.00;0.60;;;10.90;99.90;;;;;;5131188;27;20179;-72
2023/03/14 09:45:50;;;;;;;1.10;0.60;;;10.70;99.90;;;;;;5136273;27;20401;-72
2023/03/14 09:48:20;;;;;;;0.90;0.60;;;10.60;99.90;;;;;;5134597;27;20485;-71
2023/03/14 09:50:53;;;;;;;0.80;0.70;;;10.50;99.90;;;;;;5135989;27;20401;-71
2023/03/14 09:53:23;;;;;;;1.10;0.93;;;10.50;99.90;;;;;;5136142;27;20390;-71
2023/03/14 09:55:51;;;;;;;1.10;0.87;;;10.50;99.90;;;;;;5135886;27;20398;-71
2023/03/14 09:58:20;;;;;;;1.23;1.00;;;10.40;99.90;;;;;;5135852;27;20429;-71
2023/03/14 10:00:46;;;;;;;1.43;1.30;;;10.50;99.90;;;;;;5135723;27;20409;-72
2023/03/14 10:03:11;;;;;;;1.23;1.00;;;10.40;99.90;;;;;;5135911;27;20390;-71
2023/03/14 10:05:37;;;;;;;1.30;1.20;;;10.30;99.90;;;;;;5118053;27;20436;-71
2023/03/14 10:08:03;;;;;;;1.30;1.07;;;10.30;99.90;;;;;;5114992;28;20638;-71
2023/03/14 10:10:28;;;;;;;2.00;1.30;;;10.20;99.90;;;;;;5115148;28;20165;-71
2023/03/14 10:13:21;;;;;;;1.63;1.10;;;10.10;99.90;;;;;;5115052;28;20291;-71
2023/03/14 10:16:07;;;;;;;1.17;1.07;;;10.00;99.90;;;;;;5114940;28;20260;-71
2023/03/14 10:18:36;;;;;;;1.20;1.03;;;10.00;99.90;;;;;;5114298;28;20411;-72
2023/03/14 10:21:28;;;;;;;1.10;0.93;;;9.90;99.90;;;;;;5115782;27;20796;-71
2023/03/14 10:23:54;;;;;;;1.17;1.07;;;9.90;99.90;;;;;;5126607;27;20410;-71
2023/03/14 10:26:33;;;;;;;1.10;0.77;;;9.90;99.90;;;;;;5135435;27;20400;-71
2023/03/14 10:29:08;;;;;;;0.90;0.80;;;10.00;99.90;;;;;;5135085;27;20209;-71
2023/03/14 10:31:48;;;;;;;0.90;0.80;;;10.20;99.90;;;;;;5135333;27;20428;-70
2023/03/14 10:34:23;;;;;;;5.67;1.00;;;10.20;99.90;;;;;;5133804;27;20412;-71
2023/03/14 10:36:54;;;;;;;2.03;0.93;;;10.30;99.90;;;;;;5135021;27;20529;-71
2023/03/14 10:39:30;;;;;;;0.87;0.63;;;10.40;99.90;;;;;;5135195;27;20473;-70
2023/03/14 10:42:12;;;;;;;1.50;1.10;;;10.60;99.90;;;;;;5135135;27;20521;-70
2023/03/14 10:44:39;;;;;;;1.07;0.90;;;10.60;99.90;;;;;;5134922;27;20406;-71
2023/03/14 10:47:18;;;;;;;1.20;1.10;;;10.60;99.90;;;;;;5147156;27;20405;-71
2023/03/14 10:49:43;;;;;;;1.20;1.03;;;10.70;99.90;;;;;;5135028;27;20406;-71
2023/03/14 10:52:13;;;;;;;1.23;1.13;;;10.80;99.90;;;;;;5134790;27;20478;-71
2023/03/14 10:54:39;;;;;;;3.37;1.13;;;10.90;99.90;;;;;;5134848;27;20167;-71
2023/03/14 10:57:08;;;;;;;1.03;0.93;;;10.90;99.90;;;;;;5134325;27;20449;-71
2023/03/14 10:59:37;;;;;;;1.10;1.00;;;10.80;99.90;;;;;;5134833;27;20635;-71
2023/03/14 11:02:28;;;;;;;1.20;1.10;;;10.90;99.90;;;;;;5134807;27;20462;-71
2023/03/14 11:05:18;;;;;;;1.40;1.30;;;11.00;99.90;;;;;;5122897;27;20768;-71
2023/03/14 11:07:45;;;;;;;1.33;1.20;;;11.40;99.90;;;;;;5113768;27;20407;-71
2023/03/14 11:10:10;;;;;;;1.40;1.13;;;11.50;99.90;;;;;;5114048;28;20740;-71
2023/03/14 11:13:02;;;;;;;1.40;1.30;;;11.70;99.90;;;;;;5112091;28;20446;-71
2023/03/14 11:15:44;;;;;;;1.63;1.10;;;12.50;99.90;;;;;;5112707;28;20640;-71
2023/03/14 11:18:27;;;;;;;2.07;1.10;;;15.50;99.90;;;;;;5113672;28;20477;-71
2023/03/14 11:21:03;;;;;;;2.17;0.83;;;17.30;99.90;;;;;;5113687;28;20460;-71
2023/03/14 11:23:57;;;;;;;1.77;0.90;;;17.00;99.90;;;;;;5113887;28;20398;-70
2023/03/14 11:26:42;;;;;;;1.63;1.03;;;16.40;99.90;;;;;;5113809;28;20414;-70
2023/03/14 11:29:20;;;;;;;2.40;1.00;;;16.10;99.90;;;;;;5113354;28;20885;-70
2023/03/14 11:31:46;;;;;;;4.00;1.10;;;16.40;99.90;;;;;;5113227;28;20418;-70
2023/03/14 11:34:25;;;;;;;1.30;1.17;;;16.40;99.90;;;;;;5113700;28;20399;-70
2023/03/14 11:36:56;;;;;;;1.10;1.00;;;16.10;99.90;;;;;;5113262;28;21089;-71
2023/03/14 11:39:24;;;;;;;1.17;0.70;;;15.70;99.90;;;;;;5113537;28;20393;-70
2023/03/14 11:41:53;;;;;;;0.80;0.63;;;14.90;99.90;;;;;;5113436;28;20414;-70
2023/03/14 11:44:34;;;;;;;0.80;0.53;;;13.90;99.90;;;;;;5113433;28;20403;-70
2023/03/14 11:47:13;;;;;;;0.87;0.60;;;12.90;99.90;;;;;;5113075;28;20398;-70
2023/03/14 11:49:53;;;;;;;1.13;0.87;;;12.20;99.90;;;;;;5113343;28;20789;-69
2023/03/14 11:52:31;;;;;;;1.47;0.93;;;11.70;99.90;;;;;;5113202;27;20417;-69
2023/03/14 11:55:03;;;;;;;1.00;0.80;;;11.40;99.90;;;;;;5113269;28;20402;-70
2023/03/14 11:57:28;;;;;;;2.00;1.10;;;11.10;99.90;;;;;;5127330;27;20449;-70
2023/03/14 12:00:12;;;;;;;1.50;1.10;;;11.10;99.90;;;;;;5147675;27;20472;-70
2023/03/14 12:03:02;;;;;;;2.90;0.97;;;11.20;99.90;;;;;;5154285;27;20180;-70
2023/03/14 12:05:50;;;;;;;6.03;0.87;;;11.30;99.90;;;;;;5136311;27;20924;-70
2023/03/14 12:08:22;;;;;;;1.57;1.00;;;11.30;99.90;;;;;;5132155;27;20406;-70
2023/03/14 12:10:53;;;;;;;1.77;1.50;;;11.60;99.90;;;;;;5133510;27;20397;-70
2023/03/14 12:13:19;;;;;;;2.60;1.10;;;12.00;99.90;;;;;;5133431;27;20520;-70
2023/03/14 12:15:54;;;;;;;3.30;0.87;;;12.30;99.90;;;;;;5133306;27;20453;-70
2023/03/14 12:18:25;;;;;;;0.90;0.67;;;12.60;99.90;;;;;;5131762;27;20408;-70
2023/03/14 12:20:55;;;;;;;2.00;0.97;;;12.80;99.90;;;;;;5133254;27;20457;-70
2023/03/14 12:23:21;;;;;;;1.70;0.90;;;12.80;99.90;;;;;;5133321;27;20405;-70
2023/03/14 12:25:47;;;;;;;1.37;1.27;;;12.70;99.90;;;;;;5133325;27;20425;-70
2023/03/14 12:28:29;;;;;;;0.83;0.70;;;12.60;99.90;;;;;;5132958;27;21007;-70
2023/03/14 12:30:55;;;;;;;2.73;0.87;;;12.30;99.90;;;;;;5133114;27;20160;-69
2023/03/14 12:33:26;;;;;;;0.90;0.70;;;12.10;99.90;;;;;;5133170;27;20480;-70
2023/03/14 12:36:03;;;;;;;3.63;1.03;;;11.80;99.90;;;;;;5133010;27;20161;-70
2023/03/14 12:38:32;;;;;;;2.60;0.80;;;11.40;99.90;;;;;;5132847;27;20803;-70
2023/03/14 12:41:22;;;;;;;0.80;0.70;;;11.00;99.90;;;;;;5131839;27;20916;-69
2023/03/14 12:43:48;;;;;;;1.10;0.80;;;10.70;99.90;;;;;;5133013;27;20402;-70
2023/03/14 12:46:16;;;;;;;1.03;0.70;;;10.30;99.90;;;;;;5131735;27;20397;-70
2023/03/14 12:48:45;;;;;;;2.13;0.70;;;10.00;99.90;;;;;;5132593;27;20168;-69
2023/03/14 12:51:19;;;;;;;1.67;0.93;;;9.90;99.90;;;;;;5131496;27;20421;-70
2023/03/14 12:54:15;;;;;;;2.97;1.30;;;9.90;99.90;;;;;;5131688;28;20419;-70
2023/03/14 12:56:55;;;;;;;1.63;0.70;;;10.00;99.90;;;;;;5132803;27;20456;-70
2023/03/14 12:59:31;;;;;;;2.23;1.00;;;10.20;99.90;;;;;;5132841;27;20400;-70